Time;durP1;ratioP1;P1;durP2;ratioP2;P2;SDS_P1;SDS_P2;PMS_P1;PMS_P2;Temp;Humidity;BMP_temperature;BMP_pressure;BME280_temperature;BME280_humidity;BME280_pressure;Samples;Min_cycle;Max_cycle;Signal;HPM_P1;HPM_P2
2024/03/04 00:00:16;;;;;;;2.20;1.30;;;22.40;52.40;;;;;;5079900;28;20047;-63
2024/03/04 00:02:43;;;;;;;2.00;1.40;;;22.40;52.40;;;;;;5078170;28;20090;-63
2024/03/04 00:05:09;;;;;;;2.05;1.30;;;22.30;52.40;;;;;;5080234;28;20261;-64
2024/03/04 00:07:35;;;;;;;2.47;1.45;;;22.40;52.40;;;;;;5076036;28;20031;-64
2024/03/04 00:10:02;;;;;;;2.42;1.50;;;22.30;52.40;;;;;;5080545;28;20486;-64
2024/03/04 00:12:28;;;;;;;2.40;1.60;;;22.30;52.40;;;;;;5078481;28;20021;-63
2024/03/04 00:14:54;;;;;;;2.50;1.40;;;22.30;52.40;;;;;;5079086;28;20376;-64
2024/03/04 00:17:20;;;;;;;3.15;1.50;;;22.30;52.50;;;;;;5077288;28;20016;-64
2024/03/04 00:19:46;;;;;;;2.15;1.40;;;22.30;52.50;;;;;;5078999;28;20032;-64
2024/03/04 00:22:11;;;;;;;2.05;1.40;;;22.30;52.50;;;;;;5077881;28;20056;-64
2024/03/04 00:24:37;;;;;;;2.88;1.58;;;22.30;52.50;;;;;;5060263;28;20031;-64
2024/03/04 00:27:03;;;;;;;2.03;1.25;;;22.30;52.50;;;;;;5079519;28;20108;-64
2024/03/04 00:29:30;;;;;;;2.35;1.50;;;22.30;52.50;;;;;;5079302;28;20434;-64
2024/03/04 00:31:55;;;;;;;2.22;1.60;;;22.30;52.50;;;;;;5078265;28;20429;-64
2024/03/04 00:34:21;;;;;;;1.88;1.40;;;22.20;52.50;;;;;;5075889;28;20032;-64
2024/03/04 00:36:47;;;;;;;2.85;1.40;;;22.20;52.50;;;;;;5078163;28;20016;-64
2024/03/04 00:39:13;;;;;;;2.60;1.50;;;22.20;52.50;;;;;;5079381;28;20113;-63
2024/03/04 00:41:39;;;;;;;2.53;1.60;;;22.20;52.50;;;;;;5060887;28;20055;-63
2024/03/04 00:44:04;;;;;;;1.63;1.23;;;22.20;52.50;;;;;;5079381;28;20028;-64
2024/03/04 00:46:30;;;;;;;2.08;1.40;;;22.20;52.50;;;;;;5079451;28;20024;-63
2024/03/04 00:48:56;;;;;;;1.80;1.30;;;22.20;52.50;;;;;;5076074;28;20059;-63
2024/03/04 00:51:22;;;;;;;2.03;1.40;;;22.20;52.50;;;;;;5078866;28;20389;-64
2024/03/04 00:53:48;;;;;;;2.35;1.30;;;22.20;52.50;;;;;;5078875;28;20031;-63
2024/03/04 00:56:14;;;;;;;2.22;1.70;;;22.20;52.50;;;;;;5076424;28;20055;-63
2024/03/04 00:58:43;;;;;;;1.83;1.38;;;22.20;52.50;;;;;;5079378;28;20036;-63
2024/03/04 01:01:09;;;;;;;2.25;1.35;;;22.20;52.50;;;;;;5062146;28;20424;-63
2024/03/04 01:03:35;;;;;;;2.47;1.50;;;22.20;52.50;;;;;;5077535;28;20098;-63
2024/03/04 01:06:01;;;;;;;2.35;1.50;;;22.10;52.50;;;;;;5076763;28;20052;-63
2024/03/04 01:08:28;;;;;;;3.13;1.75;;;22.10;52.50;;;;;;5078926;28;20031;-63
2024/03/04 01:10:54;;;;;;;2.88;1.50;;;22.10;52.50;;;;;;5078544;28;20472;-63
2024/03/04 01:13:21;;;;;;;1.80;1.30;;;22.10;52.50;;;;;;5078887;28;20095;-64
2024/03/04 01:15:47;;;;;;;2.42;1.70;;;22.10;52.60;;;;;;5078671;28;20024;-63
2024/03/04 01:18:13;;;;;;;1.98;1.30;;;22.10;52.60;;;;;;5075640;28;20543;-64
2024/03/04 01:20:44;;;;;;;2.63;1.60;;;22.10;52.60;;;;;;5078541;28;20033;-63
2024/03/04 01:23:10;;;;;;;2.10;1.50;;;22.10;52.60;;;;;;5078365;28;20060;-64
2024/03/04 01:25:35;;;;;;;2.08;1.30;;;22.10;52.60;;;;;;5080007;28;20079;-63
2024/03/04 01:28:01;;;;;;;2.25;1.40;;;22.00;52.50;;;;;;5076922;28;20040;-64
2024/03/04 01:30:27;;;;;;;2.22;1.52;;;22.00;52.50;;;;;;5078373;28;20029;-64
2024/03/04 01:32:56;;;;;;;2.17;1.40;;;22.00;52.60;;;;;;5076825;28;20497;-64
2024/03/04 01:35:23;;;;;;;2.40;1.35;;;22.00;52.50;;;;;;5078977;28;20477;-63
2024/03/04 01:37:49;;;;;;;2.28;1.13;;;22.00;52.60;;;;;;5078206;28;20508;-63
2024/03/04 01:40:14;;;;;;;2.20;1.40;;;22.00;52.60;;;;;;5059441;28;20166;-62
2024/03/04 01:42:43;;;;;;;1.92;1.30;;;22.00;52.60;;;;;;5077548;28;20024;-64
2024/03/04 01:45:23;;;;;;;2.25;1.20;;;22.00;52.60;;;;;;5079783;28;20476;-63
2024/03/04 01:47:52;;;;;;;2.10;1.42;;;22.00;52.60;;;;;;5079139;28;20032;-63
2024/03/04 01:50:18;;;;;;;1.97;1.30;;;22.00;52.60;;;;;;5077911;28;20058;-64
2024/03/04 01:52:44;;;;;;;2.00;1.30;;;21.90;52.60;;;;;;5067672;28;20025;-63
2024/03/04 01:55:11;;;;;;;1.80;1.27;;;21.90;52.60;;;;;;5075709;28;20142;-63
2024/03/04 01:57:37;;;;;;;1.60;1.20;;;21.90;52.60;;;;;;5076677;28;20020;-64
2024/03/04 02:00:11;;;;;;;2.67;1.38;;;21.90;52.60;;;;;;5080023;28;20035;-63
2024/03/04 02:02:40;;;;;;;1.80;1.30;;;21.90;52.60;;;;;;5077946;28;20963;-63
2024/03/04 02:05:09;;;;;;;1.52;1.23;;;21.90;52.60;;;;;;5075956;28;20139;-63
2024/03/04 02:07:38;;;;;;;2.00;1.30;;;21.90;52.60;;;;;;5078465;28;20103;-63
2024/03/04 02:10:07;;;;;;;1.92;1.30;;;21.90;52.60;;;;;;5077434;28;20047;-63
2024/03/04 02:12:33;;;;;;;2.05;1.20;;;21.90;52.60;;;;;;5078868;28;20085;-63
2024/03/04 02:14:59;;;;;;;2.08;1.30;;;21.90;52.70;;;;;;5079073;28;20028;-64
2024/03/04 02:17:27;;;;;;;2.00;1.17;;;21.90;52.70;;;;;;5079345;28;20040;-63
2024/03/04 02:19:59;;;;;;;1.70;1.20;;;21.90;52.70;;;;;;5081788;28;20415;-63
2024/03/04 02:22:28;;;;;;;1.77;1.30;;;21.90;52.70;;;;;;5080179;28;20029;-63
2024/03/04 02:24:53;;;;;;;1.65;1.20;;;21.80;52.60;;;;;;5082065;28;20078;-63
2024/03/04 02:27:21;;;;;;;1.50;1.00;;;21.80;52.60;;;;;;5082322;28;20032;-63
2024/03/04 02:29:50;;;;;;;1.65;1.20;;;21.80;52.60;;;;;;5082039;28;20374;-64
2024/03/04 02:32:22;;;;;;;1.50;1.00;;;21.80;52.60;;;;;;5081591;28;20063;-63
2024/03/04 02:34:48;;;;;;;2.00;1.30;;;21.80;52.60;;;;;;5076869;28;20025;-64
2024/03/04 02:37:14;;;;;;;1.85;1.17;;;21.80;52.60;;;;;;5081065;28;20626;-63
2024/03/04 02:39:41;;;;;;;1.60;1.10;;;21.80;52.60;;;;;;5081578;28;20496;-63
2024/03/04 02:42:07;;;;;;;1.70;1.15;;;21.80;52.70;;;;;;5082392;28;20027;-62
2024/03/04 02:44:33;;;;;;;2.88;1.23;;;21.80;52.70;;;;;;5082718;28;20032;-62
2024/03/04 02:47:00;;;;;;;1.58;1.10;;;21.80;52.70;;;;;;5078924;28;20024;-62
2024/03/04 02:49:26;;;;;;;1.90;1.30;;;21.80;52.70;;;;;;5079233;28;20024;-62
2024/03/04 02:51:51;;;;;;;1.98;1.30;;;21.70;53.20;;;;;;5078602;28;20044;-62
2024/03/04 02:54:17;;;;;;;2.10;1.15;;;21.80;52.70;;;;;;5082324;28;20480;-62
2024/03/04 02:56:43;;;;;;;1.83;1.20;;;21.70;52.70;;;;;;5081054;28;20161;-62
2024/03/04 02:59:08;;;;;;;1.92;1.20;;;21.70;52.70;;;;;;5082156;28;20024;-62
2024/03/04 03:01:34;;;;;;;2.42;1.27;;;21.70;52.60;;;;;;5080518;28;20028;-62
2024/03/04 03:04:00;;;;;;;1.60;1.10;;;21.70;52.70;;;;;;5077902;28;20077;-62
2024/03/04 03:06:29;;;;;;;1.38;1.05;;;21.70;52.70;;;;;;5080608;28;20033;-62
2024/03/04 03:08:55;;;;;;;1.30;1.02;;;21.70;52.70;;;;;;5098073;28;20028;-63
2024/03/04 03:11:22;;;;;;;2.25;1.20;;;21.70;52.70;;;;;;5078696;28;20055;-62
2024/03/04 03:13:48;;;;;;;1.70;1.17;;;21.70;52.70;;;;;;5079880;28;20472;-62
2024/03/04 03:16:23;;;;;;;1.95;1.27;;;21.70;52.70;;;;;;5081797;28;20028;-62
2024/03/04 03:18:49;;;;;;;2.05;1.20;;;21.70;52.70;;;;;;5078598;28;20461;-62
2024/03/04 03:21:15;;;;;;;1.83;1.10;;;21.70;52.80;;;;;;5079552;28;20063;-62
2024/03/04 03:23:46;;;;;;;1.85;1.10;;;21.70;52.70;;;;;;5081586;28;20455;-62
2024/03/04 03:26:12;;;;;;;1.90;1.27;;;21.70;53.30;;;;;;5079972;28;20093;-62
2024/03/04 03:28:39;;;;;;;1.73;1.15;;;21.60;52.70;;;;;;5080686;28;20027;-62
2024/03/04 03:31:04;;;;;;;1.83;1.23;;;21.60;52.70;;;;;;5079161;28;20111;-62
2024/03/04 03:33:30;;;;;;;1.67;1.20;;;21.60;52.70;;;;;;5077328;28;20541;-62
2024/03/04 03:35:55;;;;;;;1.60;1.10;;;21.60;52.70;;;;;;5076438;28;20024;-62
2024/03/04 03:38:21;;;;;;;1.83;1.30;;;21.60;52.70;;;;;;5080027;28;20063;-63
2024/03/04 03:40:46;;;;;;;1.58;1.13;;;21.60;52.70;;;;;;5080237;28;20464;-62
2024/03/04 03:43:12;;;;;;;1.70;1.20;;;21.60;52.80;;;;;;5080728;28;20024;-62
2024/03/04 03:45:38;;;;;;;1.75;1.10;;;21.60;52.70;;;;;;5095793;28;20024;-62
2024/03/04 03:48:04;;;;;;;1.50;1.10;;;21.60;52.70;;;;;;5079169;28;20409;-62
2024/03/04 03:50:30;;;;;;;1.40;1.00;;;21.60;52.80;;;;;;5077383;28;20024;-63
2024/03/04 03:52:56;;;;;;;1.52;1.15;;;21.60;52.80;;;;;;5080584;28;20033;-62
2024/03/04 03:55:21;;;;;;;1.27;1.00;;;21.60;52.80;;;;;;5080070;28;20793;-62
2024/03/04 03:57:47;;;;;;;2.05;1.20;;;21.60;52.80;;;;;;5061992;28;20032;-63
2024/03/04 04:00:14;;;;;;;1.45;1.08;;;21.60;52.80;;;;;;5078405;28;20028;-62
2024/03/04 04:02:39;;;;;;;1.60;1.10;;;21.50;52.70;;;;;;5080479;28;20082;-62
2024/03/04 04:05:05;;;;;;;2.17;1.38;;;21.50;52.80;;;;;;5076010;28;20143;-62
2024/03/04 04:07:31;;;;;;;1.52;1.10;;;21.60;52.80;;;;;;5081864;28;20028;-62
2024/03/04 04:09:57;;;;;;;1.75;1.10;;;21.50;52.80;;;;;;5078373;28;20039;-64
2024/03/04 04:12:22;;;;;;;1.52;1.25;;;21.50;52.80;;;;;;5080055;28;20027;-64
2024/03/04 04:14:48;;;;;;;1.48;1.10;;;21.50;52.80;;;;;;5094568;28;20472;-64
2024/03/04 04:17:14;;;;;;;1.70;1.10;;;21.50;52.80;;;;;;5078076;28;20019;-64
2024/03/04 04:19:40;;;;;;;1.73;1.10;;;21.50;52.80;;;;;;5076738;28;20033;-64
2024/03/04 04:22:06;;;;;;;1.92;1.27;;;21.50;52.80;;;;;;5079598;28;20377;-64
2024/03/04 04:24:31;;;;;;;1.85;1.20;;;21.50;52.80;;;;;;5077215;28;20027;-64
2024/03/04 04:26:57;;;;;;;1.75;1.02;;;21.50;52.80;;;;;;5078875;28;20134;-64
2024/03/04 04:29:24;;;;;;;1.20;1.00;;;21.50;52.80;;;;;;5060341;28;20033;-64
2024/03/04 04:31:49;;;;;;;1.67;1.13;;;21.50;52.80;;;;;;5061636;28;20507;-64
2024/03/04 04:34:15;;;;;;;1.38;1.02;;;21.50;52.80;;;;;;5058361;28;20025;-64
2024/03/04 04:36:50;;;;;;;1.45;1.10;;;21.50;52.80;;;;;;5078793;28;20028;-64
2024/03/04 04:39:17;;;;;;;1.38;1.10;;;21.50;52.80;;;;;;5079510;28;20071;-64
2024/03/04 04:41:43;;;;;;;1.45;0.95;;;21.50;52.80;;;;;;5094163;28;20165;-64
2024/03/04 04:44:09;;;;;;;1.23;1.13;;;21.50;52.80;;;;;;5060609;28;20506;-64
2024/03/04 04:46:37;;;;;;;1.30;0.93;;;21.50;52.90;;;;;;5077780;28;20111;-64
2024/03/04 04:49:03;;;;;;;1.60;1.10;;;21.40;52.80;;;;;;5079273;28;20443;-64
2024/03/04 04:51:28;;;;;;;1.58;1.05;;;21.50;52.90;;;;;;5060205;28;20112;-64
2024/03/04 04:53:54;;;;;;;1.23;0.93;;;21.40;52.80;;;;;;5077283;28;20028;-63
2024/03/04 04:56:20;;;;;;;1.25;1.00;;;21.40;52.80;;;;;;5078492;28;20035;-64
2024/03/04 04:58:45;;;;;;;1.13;0.93;;;21.40;52.80;;;;;;5077243;28;20488;-64
2024/03/04 05:01:11;;;;;;;1.83;1.20;;;21.40;52.80;;;;;;5079266;28;20035;-64
2024/03/04 05:03:36;;;;;;;1.70;1.00;;;21.40;52.90;;;;;;5078223;28;20029;-64
2024/03/04 05:06:02;;;;;;;1.35;1.00;;;21.40;52.90;;;;;;5075870;28;20035;-64
2024/03/04 05:08:28;;;;;;;1.30;1.00;;;21.40;52.90;;;;;;5077973;28;20470;-64
2024/03/04 05:10:54;;;;;;;1.25;1.00;;;21.40;52.90;;;;;;5078891;28;20036;-64
2024/03/04 05:13:20;;;;;;;1.30;0.90;;;21.40;52.90;;;;;;5079172;28;20051;-64
2024/03/04 05:15:46;;;;;;;1.50;0.90;;;21.40;52.90;;;;;;5075297;28;20021;-64
2024/03/04 05:18:12;;;;;;;1.58;1.00;;;21.40;52.90;;;;;;5077383;28;20043;-64
2024/03/04 05:20:38;;;;;;;1.27;1.00;;;21.40;52.90;;;;;;5089815;28;20444;-62
2024/03/04 05:23:04;;;;;;;1.38;1.05;;;21.40;53.00;;;;;;5079629;28;20036;-63
2024/03/04 05:25:30;;;;;;;1.85;1.15;;;21.40;53.00;;;;;;5079647;28;20032;-61
2024/03/04 05:27:57;;;;;;;1.75;1.02;;;21.40;53.00;;;;;;5079228;28;20099;-62
2024/03/04 05:30:22;;;;;;;1.67;1.02;;;21.30;52.90;;;;;;5076882;28;20023;-62
2024/03/04 05:32:48;;;;;;;1.60;1.10;;;21.30;52.90;;;;;;5080119;28;20543;-62
2024/03/04 05:35:14;;;;;;;1.60;1.08;;;21.30;52.90;;;;;;5077721;28;20095;-62
2024/03/04 05:37:42;;;;;;;1.40;1.00;;;21.30;52.90;;;;;;5076334;28;20024;-62
2024/03/04 05:40:10;;;;;;;1.48;1.10;;;21.30;52.90;;;;;;5075668;28;20099;-62
2024/03/04 05:42:39;;;;;;;1.90;1.10;;;21.30;52.90;;;;;;5077743;28;20040;-62
2024/03/04 05:45:07;;;;;;;1.52;1.02;;;21.30;52.90;;;;;;5076992;28;20059;-62
2024/03/04 05:47:34;;;;;;;1.50;1.10;;;21.30;52.80;;;;;;5077343;28;20028;-62
2024/03/04 05:49:59;;;;;;;1.60;1.10;;;21.30;52.80;;;;;;5075069;28;20036;-62
2024/03/04 05:52:25;;;;;;;1.75;1.08;;;21.30;52.80;;;;;;5079091;28;20442;-62
2024/03/04 05:54:51;;;;;;;1.38;1.10;;;21.30;52.90;;;;;;5081408;28;20071;-62
2024/03/04 05:57:17;;;;;;;1.40;0.90;;;21.30;52.90;;;;;;5083208;28;20126;-62
2024/03/04 05:59:42;;;;;;;1.40;0.93;;;21.30;52.90;;;;;;5081101;28;20099;-62
2024/03/04 06:02:09;;;;;;;1.55;1.10;;;21.30;52.90;;;;;;5082038;28;20105;-61
2024/03/04 06:04:35;;;;;;;1.33;1.00;;;21.30;52.90;;;;;;5080808;28;20418;-62
2024/03/04 06:07:01;;;;;;;1.48;0.98;;;21.30;52.90;;;;;;5077448;28;20119;-61
2024/03/04 06:09:27;;;;;;;1.13;0.80;;;21.30;52.90;;;;;;5081557;28;20112;-62
2024/03/04 06:11:53;;;;;;;1.15;1.00;;;21.30;52.90;;;;;;5082854;28;20111;-61
2024/03/04 06:14:18;;;;;;;1.30;1.00;;;21.30;52.90;;;;;;5082177;28;20031;-63
2024/03/04 06:16:45;;;;;;;1.10;0.90;;;21.30;53.00;;;;;;5081070;28;20031;-62
2024/03/04 06:19:10;;;;;;;1.30;0.98;;;21.30;53.00;;;;;;5079068;28;20071;-62
2024/03/04 06:21:36;;;;;;;1.23;0.90;;;21.20;52.90;;;;;;5080663;28;20099;-62
2024/03/04 06:24:05;;;;;;;3.30;1.00;;;21.20;52.90;;;;;;5095980;28;20138;-62
2024/03/04 06:26:31;;;;;;;1.83;1.00;;;21.20;52.90;;;;;;5080473;28;20484;-63
2024/03/04 06:28:57;;;;;;;1.35;1.00;;;21.20;52.90;;;;;;5081383;28;20028;-64
2024/03/04 06:31:23;;;;;;;1.50;1.02;;;21.20;53.00;;;;;;5080403;28;20812;-64
2024/03/04 06:33:48;;;;;;;2.35;1.00;;;21.20;53.40;;;;;;5081173;28;20032;-64
2024/03/04 06:36:14;;;;;;;2.20;1.00;;;21.20;53.60;;;;;;5080182;28;20384;-64
2024/03/04 06:38:40;;;;;;;1.30;1.00;;;21.20;53.60;;;;;;5081599;28;20456;-63
2024/03/04 06:41:07;;;;;;;1.25;0.95;;;21.20;54.00;;;;;;5083401;28;20059;-64
2024/03/04 06:43:33;;;;;;;1.30;0.98;;;21.20;53.40;;;;;;5084209;28;20028;-64
2024/03/04 06:45:59;;;;;;;1.02;0.90;;;21.20;53.40;;;;;;5082739;28;20032;-64
2024/03/04 06:48:25;;;;;;;1.65;1.10;;;21.20;53.40;;;;;;5082646;28;20075;-64
2024/03/04 06:50:51;;;;;;;1.50;1.10;;;21.20;53.90;;;;;;5077825;28;20662;-65
2024/03/04 06:53:17;;;;;;;1.75;0.90;;;21.20;53.30;;;;;;5080265;28;20078;-64
2024/03/04 06:55:42;;;;;;;1.13;0.90;;;21.20;53.30;;;;;;5080923;28;20028;-64
2024/03/04 06:58:08;;;;;;;2.65;1.05;;;21.20;53.20;;;;;;5079674;28;20032;-65
2024/03/04 07:00:33;;;;;;;1.65;1.10;;;21.20;53.20;;;;;;5080874;28;20047;-64
2024/03/04 07:02:59;;;;;;;1.92;0.93;;;21.20;53.20;;;;;;5079238;28;20062;-64
2024/03/04 07:05:25;;;;;;;2.47;1.08;;;21.20;53.20;;;;;;5077762;28;20133;-64
2024/03/04 07:07:51;;;;;;;1.60;0.90;;;21.20;53.20;;;;;;5083787;28;20020;-65
2024/03/04 07:10:17;;;;;;;1.83;1.10;;;21.20;53.20;;;;;;5082299;28;20498;-64
2024/03/04 07:12:42;;;;;;;1.90;1.13;;;21.20;53.20;;;;;;5081310;28;20468;-64
2024/03/04 07:15:08;;;;;;;1.70;1.00;;;21.20;53.20;;;;;;5078941;28;20033;-64
2024/03/04 07:17:34;;;;;;;1.85;0.90;;;21.20;53.20;;;;;;5080650;28;20028;-65
2024/03/04 07:20:00;;;;;;;1.33;0.90;;;21.20;53.20;;;;;;5061176;28;20485;-62
2024/03/04 07:22:26;;;;;;;3.00;1.15;;;21.20;53.20;;;;;;5076046;28;20071;-62
2024/03/04 07:24:51;;;;;;;2.60;1.23;;;21.20;53.10;;;;;;5080476;28;20032;-61
2024/03/04 07:27:17;;;;;;;2.53;1.02;;;21.20;53.20;;;;;;5080657;28;20499;-61
2024/03/04 07:29:42;;;;;;;2.45;1.05;;;21.20;53.20;;;;;;5080284;28;20086;-62
2024/03/04 07:32:08;;;;;;;1.95;1.20;;;21.20;53.10;;;;;;5081006;28;20027;-62
2024/03/04 07:34:34;;;;;;;1.88;1.20;;;21.20;53.20;;;;;;5077898;28;20380;-62
2024/03/04 07:36:59;;;;;;;1.73;0.90;;;21.20;53.20;;;;;;5079463;28;20104;-61
2024/03/04 07:39:25;;;;;;;1.75;0.98;;;21.20;53.10;;;;;;5079559;28;20030;-62
2024/03/04 07:41:51;;;;;;;2.88;1.10;;;21.10;53.10;;;;;;5079589;28;20026;-62
2024/03/04 07:44:20;;;;;;;1.15;0.80;;;21.10;53.10;;;;;;5079584;28;20114;-62
2024/03/04 07:46:47;;;;;;;1.27;0.98;;;21.10;53.10;;;;;;5078512;28;20043;-62
2024/03/04 07:49:13;;;;;;;2.47;1.42;;;21.10;53.10;;;;;;5075989;28;20102;-62
2024/03/04 07:51:39;;;;;;;1.80;1.10;;;21.10;53.10;;;;;;5078019;28;20032;-62
2024/03/04 07:54:04;;;;;;;2.10;1.20;;;21.10;53.10;;;;;;5080196;28;20365;-62
2024/03/04 07:56:33;;;;;;;2.15;0.98;;;21.20;53.10;;;;;;5061978;28;20152;-62
2024/03/04 07:59:00;;;;;;;1.67;1.10;;;21.10;53.10;;;;;;5080218;28;20024;-62
2024/03/04 08:01:25;;;;;;;1.63;1.02;;;21.10;53.10;;;;;;5079482;28;20169;-62
2024/03/04 08:03:51;;;;;;;1.20;1.00;;;21.10;53.10;;;;;;5078921;28;20404;-61
2024/03/04 08:06:17;;;;;;;1.95;1.00;;;21.10;53.10;;;;;;5076215;28;20031;-62
2024/03/04 08:08:48;;;;;;;1.67;1.10;;;21.10;53.10;;;;;;5078664;28;20032;-61
2024/03/04 08:11:14;;;;;;;1.70;1.00;;;21.10;53.10;;;;;;5080188;28;20016;-62
2024/03/04 08:13:40;;;;;;;1.40;0.82;;;21.10;53.10;;;;;;5079318;28;20369;-62
2024/03/04 08:16:05;;;;;;;2.10;1.20;;;21.10;53.10;;;;;;5077283;28;20090;-62
2024/03/04 08:18:31;;;;;;;1.48;0.98;;;21.10;53.10;;;;;;5079038;28;20476;-62
2024/03/04 08:20:57;;;;;;;1.50;0.90;;;21.10;53.10;;;;;;5078678;28;20504;-62
2024/03/04 08:23:22;;;;;;;1.42;1.00;;;21.10;53.10;;;;;;5080398;28;20063;-62
2024/03/04 08:25:48;;;;;;;2.20;1.15;;;21.10;53.10;;;;;;5079318;28;20032;-62
2024/03/04 08:28:14;;;;;;;1.90;1.00;;;21.10;53.10;;;;;;5080010;28;20071;-62
2024/03/04 08:30:40;;;;;;;1.90;0.90;;;21.10;53.60;;;;;;5079664;28;20496;-62
2024/03/04 08:33:05;;;;;;;1.45;1.15;;;21.10;53.10;;;;;;5078285;28;20538;-62
2024/03/04 08:35:31;;;;;;;2.38;1.13;;;21.10;53.10;;;;;;5078908;28;20074;-62
2024/03/04 08:37:56;;;;;;;1.40;0.95;;;21.10;53.20;;;;;;5076071;28;20487;-63
2024/03/04 08:40:22;;;;;;;1.85;1.10;;;21.10;53.10;;;;;;5078222;28;20035;-62
2024/03/04 08:42:48;;;;;;;2.60;1.13;;;21.10;53.10;;;;;;5080639;28;20114;-62
2024/03/04 08:45:16;;;;;;;1.50;1.00;;;21.10;53.10;;;;;;5080770;28;20476;-62
2024/03/04 08:47:42;;;;;;;1.73;1.10;;;21.10;53.20;;;;;;5078495;28;20036;-62
2024/03/04 08:50:08;;;;;;;2.00;1.10;;;21.10;53.10;;;;;;5080146;28;20677;-63
2024/03/04 08:52:34;;;;;;;2.40;1.02;;;21.10;53.20;;;;;;5078698;28;20491;-64
2024/03/04 08:55:00;;;;;;;1.95;1.08;;;21.10;53.10;;;;;;5080091;28;20028;-63
2024/03/04 08:57:26;;;;;;;2.10;1.20;;;21.10;53.20;;;;;;5078060;28;20171;-64
2024/03/04 08:59:52;;;;;;;1.65;1.00;;;21.10;53.20;;;;;;5076890;28;20083;-63
2024/03/04 09:02:18;;;;;;;1.75;1.17;;;21.00;53.10;;;;;;5079887;28;20400;-64
2024/03/04 09:04:47;;;;;;;3.35;1.20;;;21.10;53.20;;;;;;5077729;28;20135;-63
2024/03/04 09:07:14;;;;;;;1.52;1.10;;;21.00;53.10;;;;;;5059658;28;20078;-63
2024/03/04 09:09:40;;;;;;;1.67;1.00;;;21.10;53.20;;;;;;5080347;28;20039;-63
2024/03/04 09:12:08;;;;;;;1.88;1.02;;;21.00;53.10;;;;;;5061834;28;20028;-63
2024/03/04 09:14:34;;;;;;;1.90;1.20;;;21.00;53.10;;;;;;5079466;28;20029;-64
2024/03/04 09:17:00;;;;;;;1.80;1.15;;;21.00;53.10;;;;;;5076519;28;20103;-63
2024/03/04 09:19:26;;;;;;;2.75;1.27;;;21.00;53.10;;;;;;5080242;28;20059;-64
2024/03/04 09:21:52;;;;;;;1.83;1.13;;;21.00;53.10;;;;;;5075443;28;20058;-64
2024/03/04 09:24:18;;;;;;;2.08;1.20;;;21.00;53.10;;;;;;5078950;28;20396;-63
2024/03/04 09:26:47;;;;;;;1.48;1.08;;;21.00;53.10;;;;;;5080967;28;20039;-63
2024/03/04 09:29:12;;;;;;;2.20;1.10;;;21.00;53.10;;;;;;5080735;28;20039;-64
2024/03/04 09:31:39;;;;;;;1.70;1.10;;;21.00;53.20;;;;;;5083064;28;20064;-64
2024/03/04 09:34:05;;;;;;;1.95;1.10;;;21.00;53.10;;;;;;5081324;28;20024;-64
2024/03/04 09:36:31;;;;;;;1.35;1.05;;;21.00;53.10;;;;;;5081703;28;20477;-64
2024/03/04 09:38:57;;;;;;;2.03;1.13;;;21.00;53.10;;;;;;5079736;28;20119;-63
2024/03/04 09:41:23;;;;;;;1.95;1.25;;;21.00;53.10;;;;;;5082644;28;20619;-65
2024/03/04 09:43:49;;;;;;;1.52;1.00;;;21.00;53.20;;;;;;5082142;28;20101;-65
2024/03/04 09:46:18;;;;;;;1.77;1.10;;;21.00;53.10;;;;;;5081779;28;20043;-65
2024/03/04 09:48:47;;;;;;;2.70;1.30;;;21.00;53.10;;;;;;5083252;28;20060;-65
2024/03/04 09:51:15;;;;;;;2.10;1.23;;;21.00;53.20;;;;;;5081277;28;20021;-65
2024/03/04 09:53:42;;;;;;;2.45;1.20;;;21.00;53.10;;;;;;5080196;28;20095;-64
2024/03/04 09:56:08;;;;;;;1.80;1.20;;;21.00;53.10;;;;;;5082651;28;20550;-64
2024/03/04 09:58:34;;;;;;;2.10;1.00;;;21.00;53.10;;;;;;5080597;28;20032;-64
2024/03/04 10:01:01;;;;;;;1.73;1.10;;;21.00;53.20;;;;;;5080304;28;20028;-63
2024/03/04 10:03:28;;;;;;;2.20;1.35;;;21.00;53.10;;;;;;5080132;28;20126;-64
2024/03/04 10:05:55;;;;;;;1.83;1.10;;;21.00;53.20;;;;;;5080941;28;20046;-64
2024/03/04 10:08:22;;;;;;;1.95;1.10;;;21.00;53.20;;;;;;5079719;28;20039;-63
2024/03/04 10:10:51;;;;;;;2.05;1.17;;;21.00;53.20;;;;;;5081160;28;20021;-63
2024/03/04 10:13:18;;;;;;;1.75;1.20;;;21.00;53.20;;;;;;5081579;28;20361;-64
2024/03/04 10:15:48;;;;;;;1.63;1.05;;;21.00;53.20;;;;;;5082313;28;20023;-63
2024/03/04 10:18:14;;;;;;;1.52;0.98;;;21.00;53.20;;;;;;5081201;28;20036;-63
2024/03/04 10:20:40;;;;;;;1.60;1.10;;;21.00;53.20;;;;;;5081312;28;20029;-64
2024/03/04 10:23:06;;;;;;;2.00;1.20;;;21.00;53.20;;;;;;5079834;28;20062;-64
2024/03/04 10:25:33;;;;;;;1.85;1.20;;;21.00;53.70;;;;;;5080212;28;20031;-64
2024/03/04 10:27:59;;;;;;;1.98;1.08;;;21.00;53.20;;;;;;5080586;28;20039;-64
2024/03/04 10:30:26;;;;;;;2.08;1.20;;;21.00;53.20;;;;;;5063633;28;20024;-64
2024/03/04 10:32:52;;;;;;;1.50;1.10;;;21.00;53.20;;;;;;5080704;28;20110;-64
2024/03/04 10:35:19;;;;;;;1.55;1.00;;;20.90;53.10;;;;;;5080557;28;20457;-63
2024/03/04 10:37:46;;;;;;;1.65;1.00;;;21.00;53.40;;;;;;5077241;28;20472;-63
2024/03/04 10:40:12;;;;;;;2.35;1.17;;;21.00;53.20;;;;;;5078328;28;20032;-63
2024/03/04 10:42:40;;;;;;;1.95;1.17;;;21.00;53.20;;;;;;5081242;28;20039;-63
2024/03/04 10:45:09;;;;;;;1.75;1.10;;;20.90;53.10;;;;;;5080783;28;20494;-63
2024/03/04 10:47:35;;;;;;;1.85;1.20;;;21.00;53.20;;;;;;5080359;28;20020;-63
2024/03/04 10:50:04;;;;;;;2.10;1.30;;;20.90;53.20;;;;;;5079447;28;20036;-64
2024/03/04 10:52:30;;;;;;;2.22;1.20;;;20.90;53.10;;;;;;5076148;28;20495;-64
2024/03/04 10:54:56;;;;;;;1.95;1.20;;;21.00;53.20;;;;;;5081482;28;20058;-63
2024/03/04 10:57:29;;;;;;;2.08;1.30;;;20.90;53.10;;;;;;5079620;28;20028;-64
2024/03/04 11:00:19;;;;;;;1.67;1.10;;;20.90;53.10;;;;;;5081597;28;20392;-64
2024/03/04 11:02:57;;;;;;;1.60;1.08;;;20.90;53.10;;;;;;5080487;28;20024;-63
2024/03/04 11:05:23;;;;;;;1.65;1.10;;;20.90;53.20;;;;;;5078291;28;20021;-64
2024/03/04 11:07:51;;;;;;;1.42;1.00;;;21.00;53.20;;;;;;5076264;28;20384;-64
2024/03/04 11:10:31;;;;;;;1.50;1.00;;;20.90;53.10;;;;;;5080601;28;20028;-64
2024/03/04 11:13:28;;;;;;;1.88;1.20;;;21.00;53.20;;;;;;5061733;28;20376;-64
2024/03/04 11:16:00;;;;;;;1.65;1.13;;;20.90;53.20;;;;;;5082370;28;20501;-64
2024/03/04 11:18:40;;;;;;;1.60;1.20;;;20.90;53.20;;;;;;5040857;28;1113409;-64
2024/03/04 11:21:07;;;;;;;1.48;1.20;;;20.90;53.10;;;;;;5081019;28;20032;-64
2024/03/04 11:23:34;;;;;;;2.10;1.30;;;20.90;53.20;;;;;;5094849;28;20074;-64
2024/03/04 11:26:00;;;;;;;2.42;1.48;;;20.90;53.10;;;;;;5078824;28;20484;-64
2024/03/04 11:28:27;;;;;;;1.58;1.23;;;20.90;53.20;;;;;;5079995;28;20036;-63
2024/03/04 11:30:54;;;;;;;1.63;1.10;;;20.90;53.20;;;;;;5078888;28;20418;-64
2024/03/04 11:33:40;;;;;;;2.50;1.40;;;20.90;53.20;;;;;;5079839;28;20024;-64
2024/03/04 11:36:10;;;;;;;1.85;1.10;;;20.90;53.20;;;;;;5078653;28;20353;-64
2024/03/04 11:38:45;;;;;;;1.85;1.10;;;20.90;53.10;;;;;;5079731;28;20515;-64
2024/03/04 11:41:12;;;;;;;2.25;1.20;;;20.90;53.20;;;;;;5080295;28;20118;-64
2024/03/04 11:43:41;;;;;;;1.88;1.10;;;20.90;53.20;;;;;;5080300;28;20028;-63
2024/03/04 11:46:14;;;;;;;2.15;1.40;;;20.90;53.20;;;;;;5080950;28;20027;-63
2024/03/04 11:48:41;;;;;;;1.73;1.20;;;20.90;53.20;;;;;;5078059;28;20040;-63
2024/03/04 11:51:07;;;;;;;1.73;1.20;;;20.90;53.20;;;;;;5081041;28;20098;-64
2024/03/04 11:53:37;;;;;;;1.70;1.17;;;20.90;53.20;;;;;;5078308;28;20487;-64
2024/03/04 11:56:02;;;;;;;1.95;1.23;;;20.90;53.20;;;;;;5077545;28;20051;-64
2024/03/04 11:58:28;;;;;;;1.90;1.20;;;20.90;53.20;;;;;;5070690;28;20040;-64
2024/03/04 12:00:56;;;;;;;1.65;1.20;;;20.90;53.20;;;;;;5080842;28;20412;-61
2024/03/04 12:03:21;;;;;;;1.70;1.00;;;20.90;53.20;;;;;;5078889;28;20037;-61
2024/03/04 12:05:47;;;;;;;2.17;1.30;;;20.90;53.20;;;;;;5081734;28;20499;-61
2024/03/04 12:08:13;;;;;;;1.50;1.10;;;20.90;53.20;;;;;;5077697;28;20075;-61
2024/03/04 12:10:40;;;;;;;1.58;1.15;;;20.90;53.20;;;;;;5079456;28;20028;-61
2024/03/04 12:13:05;;;;;;;1.73;1.20;;;20.90;53.20;;;;;;5080725;28;20115;-62
2024/03/04 12:15:31;;;;;;;1.80;1.20;;;20.90;53.20;;;;;;5081054;28;20124;-62
2024/03/04 12:17:57;;;;;;;2.08;1.40;;;20.90;53.20;;;;;;5076225;28;20112;-62
2024/03/04 12:20:25;;;;;;;2.30;1.20;;;20.90;53.20;;;;;;5079038;28;20028;-62
2024/03/04 12:22:54;;;;;;;2.20;1.40;;;20.90;53.20;;;;;;5078261;28;20597;-63
2024/03/04 12:25:25;;;;;;;2.60;1.30;;;20.80;53.20;;;;;;5076903;28;20024;-61
2024/03/04 12:27:54;;;;;;;2.13;1.20;;;20.90;53.20;;;;;;5081053;28;20493;-61
2024/03/04 12:30:21;;;;;;;1.80;1.30;;;20.90;53.20;;;;;;5079443;28;20575;-61
2024/03/04 12:32:49;;;;;;;2.10;1.40;;;20.90;53.20;;;;;;5076627;28;20066;-61
2024/03/04 12:35:31;;;;;;;2.05;1.30;;;20.90;53.30;;;;;;5080085;28;20496;-61
2024/03/04 12:37:59;;;;;;;1.88;1.25;;;20.90;53.30;;;;;;5077484;28;20110;-61
2024/03/04 12:40:26;;;;;;;2.10;1.20;;;20.90;53.30;;;;;;5064028;28;20028;-62
2024/03/04 12:42:54;;;;;;;2.35;1.30;;;20.90;53.30;;;;;;5077684;28;20499;-61
2024/03/04 12:45:22;;;;;;;2.03;1.33;;;20.90;53.30;;;;;;5080963;28;20025;-62